Thomasville, North Carolina
Current Conditions -  °F | °C
As of 4:35 PM on Thursday 27 Nov 2014 (Local Time) from KEXX Reporting Station
Scattered Clouds Scattered Clouds  
Wind Chill: 39°   Ceiling: Unl
Heat Index: 44°   Visibility: 10mi
Dew Point: 26°   Wind: 7mph
Humidity: 50%   Direction: 310°NW
Pressure: 30.16"   Gusts: NA
Location:  35.88°N, 80.08°W
Report Text: KEXX 272135Z AUTO 31006KT 10SM SCT055 06/M03 A3016 RMK AO2 T00641035
Loading
Personal Weather Stations






























Interactive Weather Map New forecast layout! Learn more

10-Day Weather Forecast

Advertisements
Track Severe Weather on mobile